sensor_id;sensor_type;location;lat;lon;timestamp;temperature;humidity
42095;DHT22;27753;55.724;37.612;2023-04-03T00:01:44;9.90;95.60
42095;DHT22;27753;55.724;37.612;2023-04-03T00:04:10;9.90;95.60
42095;DHT22;27753;55.724;37.612;2023-04-03T00:06:35;10.00;95.60
42095;DHT22;27753;55.724;37.612;2023-04-03T00:09:01;10.00;95.50
42095;DHT22;27753;55.724;37.612;2023-04-03T00:11:27;10.00;95.60
42095;DHT22;27753;55.724;37.612;2023-04-03T00:13:56;10.00;95.80
42095;DHT22;27753;55.724;37.612;2023-04-03T00:16:22;10.00;95.80
42095;DHT22;27753;55.724;37.612;2023-04-03T00:18:48;10.00;95.60
42095;DHT22;27753;55.724;37.612;2023-04-03T00:21:14;10.00;95.60
42095;DHT22;27753;55.724;37.612;2023-04-03T00:23:41;10.00;95.60
42095;DHT22;27753;55.724;37.612;2023-04-03T00:26:07;10.00;95.70
42095;DHT22;27753;55.724;37.612;2023-04-03T00:28:33;10.00;95.50
42095;DHT22;27753;55.724;37.612;2023-04-03T00:30:59;10.00;95.00
42095;DHT22;27753;55.724;37.612;2023-04-03T00:33:25;10.00;94.80
42095;DHT22;27753;55.724;37.612;2023-04-03T00:35:51;9.90;94.80
42095;DHT22;27753;55.724;37.612;2023-04-03T00:38:18;9.90;94.70
42095;DHT22;27753;55.724;37.612;2023-04-03T00:40:46;9.90;94.70
42095;DHT22;27753;55.724;37.612;2023-04-03T00:43:20;9.80;95.00
42095;DHT22;27753;55.724;37.612;2023-04-03T00:45:49;9.80;94.90
42095;DHT22;27753;55.724;37.612;2023-04-03T00:51:09;9.70;94.70
42095;DHT22;27753;55.724;37.612;2023-04-03T00:53:43;9.60;94.80
42095;DHT22;27753;55.724;37.612;2023-04-03T00:56:13;9.60;94.80
42095;DHT22;27753;55.724;37.612;2023-04-03T00:58:45;9.50;94.70
42095;DHT22;27753;55.724;37.612;2023-04-03T01:01:16;9.50;94.60
42095;DHT22;27753;55.724;37.612;2023-04-03T01:03:43;9.40;94.60
42095;DHT22;27753;55.724;37.612;2023-04-03T01:06:09;9.40;94.50
42095;DHT22;27753;55.724;37.612;2023-04-03T01:08:35;9.30;94.50
42095;DHT22;27753;55.724;37.612;2023-04-03T01:11:01;9.30;94.60
42095;DHT22;27753;55.724;37.612;2023-04-03T01:13:30;9.30;94.70
42095;DHT22;27753;55.724;37.612;2023-04-03T01:15:56;9.20;94.70
42095;DHT22;27753;55.724;37.612;2023-04-03T01:18:24;9.30;94.60
42095;DHT22;27753;55.724;37.612;2023-04-03T01:24:03;9.20;94.50
42095;DHT22;27753;55.724;37.612;2023-04-03T01:26:31;9.20;94.50
42095;DHT22;27753;55.724;37.612;2023-04-03T01:28:59;9.20;94.50
42095;DHT22;27753;55.724;37.612;2023-04-03T01:33:53;9.20;94.80
42095;DHT22;27753;55.724;37.612;2023-04-03T01:36:25;9.30;94.70
42095;DHT22;27753;55.724;37.612;2023-04-03T01:38:53;9.20;94.60
42095;DHT22;27753;55.724;37.612;2023-04-03T01:41:19;9.10;94.50
42095;DHT22;27753;55.724;37.612;2023-04-03T01:43:47;9.10;94.50
42095;DHT22;27753;55.724;37.612;2023-04-03T01:46:14;9.10;94.60
42095;DHT22;27753;55.724;37.612;2023-04-03T01:48:40;9.00;94.60
42095;DHT22;27753;55.724;37.612;2023-04-03T01:51:06;9.00;94.60
42095;DHT22;27753;55.724;37.612;2023-04-03T01:53:32;9.00;94.60
42095;DHT22;27753;55.724;37.612;2023-04-03T01:55:57;9.00;94.70
42095;DHT22;27753;55.724;37.612;2023-04-03T01:58:23;8.90;94.70
42095;DHT22;27753;55.724;37.612;2023-04-03T02:00:51;8.90;94.70
42095;DHT22;27753;55.724;37.612;2023-04-03T02:03:17;8.80;94.80
42095;DHT22;27753;55.724;37.612;2023-04-03T02:05:44;8.80;94.80
42095;DHT22;27753;55.724;37.612;2023-04-03T02:08:11;8.80;94.90
42095;DHT22;27753;55.724;37.612;2023-04-03T02:10:37;8.70;95.10
42095;DHT22;27753;55.724;37.612;2023-04-03T02:13:03;8.70;95.40
42095;DHT22;27753;55.724;37.612;2023-04-03T02:15:29;8.70;95.60
42095;DHT22;27753;55.724;37.612;2023-04-03T02:17:55;8.70;95.70
42095;DHT22;27753;55.724;37.612;2023-04-03T02:20:21;8.60;95.70
42095;DHT22;27753;55.724;37.612;2023-04-03T02:22:47;8.60;95.70
42095;DHT22;27753;55.724;37.612;2023-04-03T02:25:13;8.70;95.70
42095;DHT22;27753;55.724;37.612;2023-04-03T02:27:40;8.70;95.60
42095;DHT22;27753;55.724;37.612;2023-04-03T02:30:06;8.70;95.40
42095;DHT22;27753;55.724;37.612;2023-04-03T02:32:32;8.80;95.30
42095;DHT22;27753;55.724;37.612;2023-04-03T02:34:58;8.80;95.30
42095;DHT22;27753;55.724;37.612;2023-04-03T02:37:24;8.80;95.20
42095;DHT22;27753;55.724;37.612;2023-04-03T02:39:50;8.80;95.30
42095;DHT22;27753;55.724;37.612;2023-04-03T02:42:16;8.70;95.50
42095;DHT22;27753;55.724;37.612;2023-04-03T02:44:42;8.70;95.70
42095;DHT22;27753;55.724;37.612;2023-04-03T02:47:08;8.70;95.80
42095;DHT22;27753;55.724;37.612;2023-04-03T02:49:34;8.70;96.00
42095;DHT22;27753;55.724;37.612;2023-04-03T02:52:00;8.60;96.00
42095;DHT22;27753;55.724;37.612;2023-04-03T02:54:25;8.60;95.90
42095;DHT22;27753;55.724;37.612;2023-04-03T02:56:54;8.60;95.90
42095;DHT22;27753;55.724;37.612;2023-04-03T02:59:20;8.70;95.80
42095;DHT22;27753;55.724;37.612;2023-04-03T03:01:46;8.70;95.70
42095;DHT22;27753;55.724;37.612;2023-04-03T03:04:12;8.70;95.50
42095;DHT22;27753;55.724;37.612;2023-04-03T03:06:38;8.70;95.50
42095;DHT22;27753;55.724;37.612;2023-04-03T03:09:04;8.70;95.50
42095;DHT22;27753;55.724;37.612;2023-04-03T03:11:31;8.70;95.90
42095;DHT22;27753;55.724;37.612;2023-04-03T03:13:57;8.60;95.50
42095;DHT22;27753;55.724;37.612;2023-04-03T03:16:23;8.60;95.50
42095;DHT22;27753;55.724;37.612;2023-04-03T03:18:49;8.50;95.50
42095;DHT22;27753;55.724;37.612;2023-04-03T03:21:17;8.50;95.50
42095;DHT22;27753;55.724;37.612;2023-04-03T03:23:43;8.50;95.60
42095;DHT22;27753;55.724;37.612;2023-04-03T03:26:10;8.40;95.70
42095;DHT22;27753;55.724;37.612;2023-04-03T03:28:37;8.40;95.90
42095;DHT22;27753;55.724;37.612;2023-04-03T03:31:04;8.30;96.00
42095;DHT22;27753;55.724;37.612;2023-04-03T03:33:30;8.40;96.00
42095;DHT22;27753;55.724;37.612;2023-04-03T03:35:56;8.40;96.10
42095;DHT22;27753;55.724;37.612;2023-04-03T03:38:23;8.40;96.10
42095;DHT22;27753;55.724;37.612;2023-04-03T03:40:49;8.40;96.10
42095;DHT22;27753;55.724;37.612;2023-04-03T03:43:16;8.40;96.10
42095;DHT22;27753;55.724;37.612;2023-04-03T03:45:42;8.40;96.00
42095;DHT22;27753;55.724;37.612;2023-04-03T03:48:08;8.40;96.00
42095;DHT22;27753;55.724;37.612;2023-04-03T03:50:35;8.40;96.20
42095;DHT22;27753;55.724;37.612;2023-04-03T03:53:01;8.40;95.90
42095;DHT22;27753;55.724;37.612;2023-04-03T03:55:27;8.40;95.60
42095;DHT22;27753;55.724;37.612;2023-04-03T03:57:53;8.40;95.50
42095;DHT22;27753;55.724;37.612;2023-04-03T04:00:19;8.40;95.60
42095;DHT22;27753;55.724;37.612;2023-04-03T04:02:45;8.40;95.70
42095;DHT22;27753;55.724;37.612;2023-04-03T04:05:11;8.40;95.80
42095;DHT22;27753;55.724;37.612;2023-04-03T04:07:37;8.40;95.80
42095;DHT22;27753;55.724;37.612;2023-04-03T04:10:03;8.40;95.80
42095;DHT22;27753;55.724;37.612;2023-04-03T04:12:29;8.40;95.60
42095;DHT22;27753;55.724;37.612;2023-04-03T04:14:55;8.40;95.60
42095;DHT22;27753;55.724;37.612;2023-04-03T04:17:21;8.40;95.60
42095;DHT22;27753;55.724;37.612;2023-04-03T04:19:47;8.40;95.60
42095;DHT22;27753;55.724;37.612;2023-04-03T04:22:13;8.40;95.60
42095;DHT22;27753;55.724;37.612;2023-04-03T04:24:39;8.40;95.50
42095;DHT22;27753;55.724;37.612;2023-04-03T04:27:05;8.40;95.30
42095;DHT22;27753;55.724;37.612;2023-04-03T04:29:30;8.40;95.20
42095;DHT22;27753;55.724;37.612;2023-04-03T04:32:02;8.50;95.20
42095;DHT22;27753;55.724;37.612;2023-04-03T04:34:28;8.50;95.20
42095;DHT22;27753;55.724;37.612;2023-04-03T04:36:54;8.60;95.10
42095;DHT22;27753;55.724;37.612;2023-04-03T04:39:20;8.70;95.10
42095;DHT22;27753;55.724;37.612;2023-04-03T04:41:46;8.80;94.90
42095;DHT22;27753;55.724;37.612;2023-04-03T04:44:12;8.80;94.70
42095;DHT22;27753;55.724;37.612;2023-04-03T04:46:37;8.90;94.60
42095;DHT22;27753;55.724;37.612;2023-04-03T04:49:03;9.10;94.40
42095;DHT22;27753;55.724;37.612;2023-04-03T04:51:29;9.10;94.20
42095;DHT22;27753;55.724;37.612;2023-04-03T04:53:55;9.30;94.00
42095;DHT22;27753;55.724;37.612;2023-04-03T04:56:21;9.40;93.60
42095;DHT22;27753;55.724;37.612;2023-04-03T04:58:47;9.60;93.40
42095;DHT22;27753;55.724;37.612;2023-04-03T05:01:13;9.80;93.20
42095;DHT22;27753;55.724;37.612;2023-04-03T05:03:39;9.90;93.20
42095;DHT22;27753;55.724;37.612;2023-04-03T05:06:05;10.20;92.70
42095;DHT22;27753;55.724;37.612;2023-04-03T05:08:32;10.30;92.40
42095;DHT22;27753;55.724;37.612;2023-04-03T05:10:58;10.40;92.10
42095;DHT22;27753;55.724;37.612;2023-04-03T05:13:24;10.40;91.90
42095;DHT22;27753;55.724;37.612;2023-04-03T05:15:50;10.50;91.80
42095;DHT22;27753;55.724;37.612;2023-04-03T05:18:16;10.50;91.60
42095;DHT22;27753;55.724;37.612;2023-04-03T05:20:42;10.50;91.50
42095;DHT22;27753;55.724;37.612;2023-04-03T05:23:09;10.50;91.40
42095;DHT22;27753;55.724;37.612;2023-04-03T05:25:38;10.60;91.70
42095;DHT22;27753;55.724;37.612;2023-04-03T05:28:03;10.60;91.20
42095;DHT22;27753;55.724;37.612;2023-04-03T05:30:29;10.50;91.00
42095;DHT22;27753;55.724;37.612;2023-04-03T05:32:55;10.50;91.10
42095;DHT22;27753;55.724;37.612;2023-04-03T05:35:21;10.50;90.90
42095;DHT22;27753;55.724;37.612;2023-04-03T05:37:48;10.40;90.90
42095;DHT22;27753;55.724;37.612;2023-04-03T05:40:14;10.30;91.10
42095;DHT22;27753;55.724;37.612;2023-04-03T05:42:40;10.20;91.20
42095;DHT22;27753;55.724;37.612;2023-04-03T05:45:06;10.20;91.10
42095;DHT22;27753;55.724;37.612;2023-04-03T05:47:32;10.10;91.10
42095;DHT22;27753;55.724;37.612;2023-04-03T05:49:58;10.10;91.20
42095;DHT22;27753;55.724;37.612;2023-04-03T05:52:27;10.00;91.30
42095;DHT22;27753;55.724;37.612;2023-04-03T05:54:55;10.10;91.40
42095;DHT22;27753;55.724;37.612;2023-04-03T05:57:22;10.20;91.60
42095;DHT22;27753;55.724;37.612;2023-04-03T05:59:48;10.40;91.60
42095;DHT22;27753;55.724;37.612;2023-04-03T06:02:17;10.50;91.40
42095;DHT22;27753;55.724;37.612;2023-04-03T06:04:43;10.70;91.10
42095;DHT22;27753;55.724;37.612;2023-04-03T06:07:16;10.70;90.50
42095;DHT22;27753;55.724;37.612;2023-04-03T06:09:43;10.70;90.50
42095;DHT22;27753;55.724;37.612;2023-04-03T06:12:09;10.70;90.50
42095;DHT22;27753;55.724;37.612;2023-04-03T06:14:36;10.60;90.50
42095;DHT22;27753;55.724;37.612;2023-04-03T06:17:02;10.50;90.50
42095;DHT22;27753;55.724;37.612;2023-04-03T06:19:28;10.50;90.70
42095;DHT22;27753;55.724;37.612;2023-04-03T06:21:54;10.50;90.80
42095;DHT22;27753;55.724;37.612;2023-04-03T06:24:20;10.50;90.60
42095;DHT22;27753;55.724;37.612;2023-04-03T06:26:48;10.50;90.70
42095;DHT22;27753;55.724;37.612;2023-04-03T06:29:17;10.60;90.90
42095;DHT22;27753;55.724;37.612;2023-04-03T06:31:43;10.60;90.90
42095;DHT22;27753;55.724;37.612;2023-04-03T06:34:09;10.70;90.60
42095;DHT22;27753;55.724;37.612;2023-04-03T06:36:37;10.80;90.50
42095;DHT22;27753;55.724;37.612;2023-04-03T06:39:04;11.00;90.50
42095;DHT22;27753;55.724;37.612;2023-04-03T06:41:31;11.10;89.80
42095;DHT22;27753;55.724;37.612;2023-04-03T06:43:57;11.00;89.50
42095;DHT22;27753;55.724;37.612;2023-04-03T06:46:25;11.00;89.70
42095;DHT22;27753;55.724;37.612;2023-04-03T06:48:52;11.00;89.80
42095;DHT22;27753;55.724;37.612;2023-04-03T06:51:23;11.10;89.50
42095;DHT22;27753;55.724;37.612;2023-04-03T06:53:51;11.10;89.10
42095;DHT22;27753;55.724;37.612;2023-04-03T06:56:18;11.30;89.10
42095;DHT22;27753;55.724;37.612;2023-04-03T06:58:44;11.50;89.00
42095;DHT22;27753;55.724;37.612;2023-04-03T07:01:11;11.80;88.50
42095;DHT22;27753;55.724;37.612;2023-04-03T07:03:38;12.10;87.10
42095;DHT22;27753;55.724;37.612;2023-04-03T07:06:05;12.50;86.30
42095;DHT22;27753;55.724;37.612;2023-04-03T07:08:31;12.80;85.30
42095;DHT22;27753;55.724;37.612;2023-04-03T07:10:57;13.20;84.40
42095;DHT22;27753;55.724;37.612;2023-04-03T07:13:23;13.80;83.30
42095;DHT22;27753;55.724;37.612;2023-04-03T07:15:49;14.30;80.50
42095;DHT22;27753;55.724;37.612;2023-04-03T07:18:16;14.60;78.80
42095;DHT22;27753;55.724;37.612;2023-04-03T07:20:45;15.00;77.50
42095;DHT22;27753;55.724;37.612;2023-04-03T07:23:11;15.50;76.60
42095;DHT22;27753;55.724;37.612;2023-04-03T07:25:42;16.00;75.40
42095;DHT22;27753;55.724;37.612;2023-04-03T07:28:10;16.20;72.70
42095;DHT22;27753;55.724;37.612;2023-04-03T07:30:45;16.30;70.90
42095;DHT22;27753;55.724;37.612;2023-04-03T07:33:13;16.30;70.00
42095;DHT22;27753;55.724;37.612;2023-04-03T07:35:40;16.40;69.60
42095;DHT22;27753;55.724;37.612;2023-04-03T07:40:33;17.30;67.10
42095;DHT22;27753;55.724;37.612;2023-04-03T07:43:00;17.60;64.90
42095;DHT22;27753;55.724;37.612;2023-04-03T07:45:27;17.40;64.30
42095;DHT22;27753;55.724;37.612;2023-04-03T07:47:52;17.20;63.40
42095;DHT22;27753;55.724;37.612;2023-04-03T07:50:18;16.80;63.40
42095;DHT22;27753;55.724;37.612;2023-04-03T07:52:46;16.80;64.10
42095;DHT22;27753;55.724;37.612;2023-04-03T07:55:12;17.10;63.70
42095;DHT22;27753;55.724;37.612;2023-04-03T07:57:38;17.00;65.20
42095;DHT22;27753;55.724;37.612;2023-04-03T08:00:07;17.00;63.80
42095;DHT22;27753;55.724;37.612;2023-04-03T08:02:33;17.20;63.80
42095;DHT22;27753;55.724;37.612;2023-04-03T08:04:59;17.40;63.50
42095;DHT22;27753;55.724;37.612;2023-04-03T08:07:25;17.60;63.10
42095;DHT22;27753;55.724;37.612;2023-04-03T08:09:51;17.80;62.40
42095;DHT22;27753;55.724;37.612;2023-04-03T08:12:17;17.90;61.40
42095;DHT22;27753;55.724;37.612;2023-04-03T08:14:43;17.80;61.80
42095;DHT22;27753;55.724;37.612;2023-04-03T08:17:09;17.50;62.00
42095;DHT22;27753;55.724;37.612;2023-04-03T08:19:40;17.10;62.80
42095;DHT22;27753;55.724;37.612;2023-04-03T08:22:06;16.90;63.70
42095;DHT22;27753;55.724;37.612;2023-04-03T08:24:33;16.70;63.40
42095;DHT22;27753;55.724;37.612;2023-04-03T08:26:59;16.60;63.50
42095;DHT22;27753;55.724;37.612;2023-04-03T08:29:25;16.40;64.50
42095;DHT22;27753;55.724;37.612;2023-04-03T08:31:51;16.10;65.50
42095;DHT22;27753;55.724;37.612;2023-04-03T08:34:18;15.80;65.70
42095;DHT22;27753;55.724;37.612;2023-04-03T08:36:45;15.60;66.20
42095;DHT22;27753;55.724;37.612;2023-04-03T08:39:11;15.30;66.90
42095;DHT22;27753;55.724;37.612;2023-04-03T08:41:40;15.20;68.20
42095;DHT22;27753;55.724;37.612;2023-04-03T08:46:52;15.40;68.60
42095;DHT22;27753;55.724;37.612;2023-04-03T08:49:26;15.50;68.40
42095;DHT22;27753;55.724;37.612;2023-04-03T08:51:54;15.60;67.60
42095;DHT22;27753;55.724;37.612;2023-04-03T08:54:33;15.60;68.00
42095;DHT22;27753;55.724;37.612;2023-04-03T08:57:03;15.60;67.20
42095;DHT22;27753;55.724;37.612;2023-04-03T08:59:34;15.40;67.60
42095;DHT22;27753;55.724;37.612;2023-04-03T09:02:04;15.20;68.20
42095;DHT22;27753;55.724;37.612;2023-04-03T09:04:32;15.20;69.10
42095;DHT22;27753;55.724;37.612;2023-04-03T09:07:06;15.40;69.10
42095;DHT22;27753;55.724;37.612;2023-04-03T09:09:40;15.70;68.60
42095;DHT22;27753;55.724;37.612;2023-04-03T09:23:37;17.30;65.30
42095;DHT22;27753;55.724;37.612;2023-04-03T09:26:11;17.20;63.40
42095;DHT22;27753;55.724;37.612;2023-04-03T09:28:40;17.10;63.60
42095;DHT22;27753;55.724;37.612;2023-04-03T09:31:40;17.00;63.10
42095;DHT22;27753;55.724;37.612;2023-04-03T09:34:28;16.90;64.40
42095;DHT22;27753;55.724;37.612;2023-04-03T09:36:57;16.80;63.90
42095;DHT22;27753;55.724;37.612;2023-04-03T09:39:27;17.20;63.10
42095;DHT22;27753;55.724;37.612;2023-04-03T09:42:17;17.40;62.20
42095;DHT22;27753;55.724;37.612;2023-04-03T09:44:54;17.40;62.30
42095;DHT22;27753;55.724;37.612;2023-04-03T09:47:40;17.40;62.30
42095;DHT22;27753;55.724;37.612;2023-04-03T09:52:40;17.60;61.80
42095;DHT22;27753;55.724;37.612;2023-04-03T09:55:10;17.70;60.90
42095;DHT22;27753;55.724;37.612;2023-04-03T09:57:39;17.50;60.20
42095;DHT22;27753;55.724;37.612;2023-04-03T10:00:10;17.10;60.80
42095;DHT22;27753;55.724;37.612;2023-04-03T10:02:44;16.60;61.20
42095;DHT22;27753;55.724;37.612;2023-04-03T10:05:36;16.30;62.10
42095;DHT22;27753;55.724;37.612;2023-04-03T10:10:36;16.50;62.50
42095;DHT22;27753;55.724;37.612;2023-04-03T10:13:16;16.80;62.50
42095;DHT22;27753;55.724;37.612;2023-04-03T10:16:07;16.80;61.90
42095;DHT22;27753;55.724;37.612;2023-04-03T10:18:46;16.90;61.80
42095;DHT22;27753;55.724;37.612;2023-04-03T10:29:47;16.50;62.90
42095;DHT22;27753;55.724;37.612;2023-04-03T10:32:32;16.50;63.00
42095;DHT22;27753;55.724;37.612;2023-04-03T10:35:18;16.40;62.10
42095;DHT22;27753;55.724;37.612;2023-04-03T10:37:59;16.50;62.40
42095;DHT22;27753;55.724;37.612;2023-04-03T10:40:40;16.40;62.10
42095;DHT22;27753;55.724;37.612;2023-04-03T10:43:21;16.20;62.00
42095;DHT22;27753;55.724;37.612;2023-04-03T10:46:22;16.10;62.50
42095;DHT22;27753;55.724;37.612;2023-04-03T10:49:25;16.10;62.70
42095;DHT22;27753;55.724;37.612;2023-04-03T10:52:17;16.20;62.50
42095;DHT22;27753;55.724;37.612;2023-04-03T10:55:16;16.20;61.30
42095;DHT22;27753;55.724;37.612;2023-04-03T10:57:36;16.10;61.50
42095;DHT22;27753;55.724;37.612;2023-04-03T11:00:16;16.20;61.60
42095;DHT22;27753;55.724;37.612;2023-04-03T11:03:05;16.20;61.10
42095;DHT22;27753;55.724;37.612;2023-04-03T11:05:47;16.40;61.20
42095;DHT22;27753;55.724;37.612;2023-04-03T11:11:26;16.80;61.50
42095;DHT22;27753;55.724;37.612;2023-04-03T11:14:02;16.90;61.60
42095;DHT22;27753;55.724;37.612;2023-04-03T11:16:29;16.90;61.20
42095;DHT22;27753;55.724;37.612;2023-04-03T11:19:08;16.90;61.80
42095;DHT22;27753;55.724;37.612;2023-04-03T11:21:43;17.00;62.10
42095;DHT22;27753;55.724;37.612;2023-04-03T11:24:25;16.90;61.40
42095;DHT22;27753;55.724;37.612;2023-04-03T11:26:54;16.80;60.90
42095;DHT22;27753;55.724;37.612;2023-04-03T11:29:23;16.50;62.00
42095;DHT22;27753;55.724;37.612;2023-04-03T11:34:41;16.50;62.00
42095;DHT22;27753;55.724;37.612;2023-04-03T11:37:40;16.50;62.80
42095;DHT22;27753;55.724;37.612;2023-04-03T11:42:49;16.80;62.00
42095;DHT22;27753;55.724;37.612;2023-04-03T11:47:57;16.90;62.10
42095;DHT22;27753;55.724;37.612;2023-04-03T12:00:57;16.50;61.60
42095;DHT22;27753;55.724;37.612;2023-04-03T12:14:03;15.80;63.20
42095;DHT22;27753;55.724;37.612;2023-04-03T12:16:43;15.60;63.50
42095;DHT22;27753;55.724;37.612;2023-04-03T12:19:36;15.50;63.00
42095;DHT22;27753;55.724;37.612;2023-04-03T12:24:32;15.20;64.30
42095;DHT22;27753;55.724;37.612;2023-04-03T12:48:46;14.70;64.50
42095;DHT22;27753;55.724;37.612;2023-04-03T12:51:42;14.70;64.90
42095;DHT22;27753;55.724;37.612;2023-04-03T12:54:16;14.60;65.20
42095;DHT22;27753;55.724;37.612;2023-04-03T12:56:42;14.60;65.30
42095;DHT22;27753;55.724;37.612;2023-04-03T12:59:24;14.60;65.90
42095;DHT22;27753;55.724;37.612;2023-04-03T13:02:21;14.60;65.80
42095;DHT22;27753;55.724;37.612;2023-04-03T13:04:48;14.60;66.00
42095;DHT22;27753;55.724;37.612;2023-04-03T13:07:35;14.60;66.10
42095;DHT22;27753;55.724;37.612;2023-04-03T13:12:45;14.40;67.10
42095;DHT22;27753;55.724;37.612;2023-04-03T13:15:24;14.50;67.50
42095;DHT22;27753;55.724;37.612;2023-04-03T13:17:51;14.40;67.50
42095;DHT22;27753;55.724;37.612;2023-04-03T13:20:25;14.40;67.30
42095;DHT22;27753;55.724;37.612;2023-04-03T13:25:20;14.40;67.80
42095;DHT22;27753;55.724;37.612;2023-04-03T13:27:46;14.30;68.10
42095;DHT22;27753;55.724;37.612;2023-04-03T13:33:32;14.30;68.40
42095;DHT22;27753;55.724;37.612;2023-04-03T13:36:08;14.30;69.30
42095;DHT22;27753;55.724;37.612;2023-04-03T13:38:41;14.30;69.40
42095;DHT22;27753;55.724;37.612;2023-04-03T13:41:36;14.20;69.50
42095;DHT22;27753;55.724;37.612;2023-04-03T13:46:53;14.20;70.60
42095;DHT22;27753;55.724;37.612;2023-04-03T13:49:37;14.10;70.80
42095;DHT22;27753;55.724;37.612;2023-04-03T13:52:30;14.00;71.70
42095;DHT22;27753;55.724;37.612;2023-04-03T13:55:00;14.00;72.30
42095;DHT22;27753;55.724;37.612;2023-04-03T13:57:27;13.90;72.80
42095;DHT22;27753;55.724;37.612;2023-04-03T13:59:54;13.90;73.80
42095;DHT22;27753;55.724;37.612;2023-04-03T14:02:32;13.90;73.90
42095;DHT22;27753;55.724;37.612;2023-04-03T14:05:01;13.90;74.20
42095;DHT22;27753;55.724;37.612;2023-04-03T14:07:30;13.90;73.60
42095;DHT22;27753;55.724;37.612;2023-04-03T14:09:56;13.90;74.30
42095;DHT22;27753;55.724;37.612;2023-04-03T14:12:35;13.80;73.40
42095;DHT22;27753;55.724;37.612;2023-04-03T14:15:18;13.70;73.70
42095;DHT22;27753;55.724;37.612;2023-04-03T14:17:44;13.70;75.20
42095;DHT22;27753;55.724;37.612;2023-04-03T14:20:18;13.60;75.20
42095;DHT22;27753;55.724;37.612;2023-04-03T14:22:45;13.60;74.10
42095;DHT22;27753;55.724;37.612;2023-04-03T14:25:12;13.50;74.10
42095;DHT22;27753;55.724;37.612;2023-04-03T14:27:49;13.50;74.00
42095;DHT22;27753;55.724;37.612;2023-04-03T14:30:26;13.50;74.80
42095;DHT22;27753;55.724;37.612;2023-04-03T14:32:52;13.30;74.70
42095;DHT22;27753;55.724;37.612;2023-04-03T14:35:18;13.30;74.40
42095;DHT22;27753;55.724;37.612;2023-04-03T14:37:46;13.30;74.70
42095;DHT22;27753;55.724;37.612;2023-04-03T14:40:19;13.30;75.10
42095;DHT22;27753;55.724;37.612;2023-04-03T14:42:45;13.40;75.30
42095;DHT22;27753;55.724;37.612;2023-04-03T14:45:14;13.40;74.80
42095;DHT22;27753;55.724;37.612;2023-04-03T14:47:49;13.40;74.90
42095;DHT22;27753;55.724;37.612;2023-04-03T14:50:23;13.40;74.90
42095;DHT22;27753;55.724;37.612;2023-04-03T14:52:52;13.40;74.90
42095;DHT22;27753;55.724;37.612;2023-04-03T14:55:21;13.40;74.90
42095;DHT22;27753;55.724;37.612;2023-04-03T14:57:48;13.40;74.70
42095;DHT22;27753;55.724;37.612;2023-04-03T15:00:16;13.30;74.80
42095;DHT22;27753;55.724;37.612;2023-04-03T15:02:43;13.30;74.60
42095;DHT22;27753;55.724;37.612;2023-04-03T15:05:11;13.30;75.00
42095;DHT22;27753;55.724;37.612;2023-04-03T15:07:47;13.30;74.90
42095;DHT22;27753;55.724;37.612;2023-04-03T15:10:23;13.30;74.90
42095;DHT22;27753;55.724;37.612;2023-04-03T15:12:49;13.20;75.60
42095;DHT22;27753;55.724;37.612;2023-04-03T15:15:17;13.20;75.40
42095;DHT22;27753;55.724;37.612;2023-04-03T15:17:46;13.20;74.70
42095;DHT22;27753;55.724;37.612;2023-04-03T15:20:17;13.20;74.10
42095;DHT22;27753;55.724;37.612;2023-04-03T15:22:43;13.20;73.80
42095;DHT22;27753;55.724;37.612;2023-04-03T15:25:10;13.20;73.70
42095;DHT22;27753;55.724;37.612;2023-04-03T15:27:37;13.20;74.00
42095;DHT22;27753;55.724;37.612;2023-04-03T15:30:07;13.20;73.40
42095;DHT22;27753;55.724;37.612;2023-04-03T15:32:36;13.10;73.50
42095;DHT22;27753;55.724;37.612;2023-04-03T15:35:02;13.10;73.80
42095;DHT22;27753;55.724;37.612;2023-04-03T15:37:31;13.10;74.00
42095;DHT22;27753;55.724;37.612;2023-04-03T15:39:57;13.00;73.90
42095;DHT22;27753;55.724;37.612;2023-04-03T15:42:23;13.00;74.30
42095;DHT22;27753;55.724;37.612;2023-04-03T15:44:49;13.00;74.60
42095;DHT22;27753;55.724;37.612;2023-04-03T15:47:15;13.00;74.60
42095;DHT22;27753;55.724;37.612;2023-04-03T15:49:41;13.00;74.70
42095;DHT22;27753;55.724;37.612;2023-04-03T15:52:07;13.00;74.80
42095;DHT22;27753;55.724;37.612;2023-04-03T15:54:34;13.00;74.80
42095;DHT22;27753;55.724;37.612;2023-04-03T15:57:00;12.90;74.80
42095;DHT22;27753;55.724;37.612;2023-04-03T15:59:26;12.90;74.50
42095;DHT22;27753;55.724;37.612;2023-04-03T16:01:54;12.90;74.50
42095;DHT22;27753;55.724;37.612;2023-04-03T16:04:20;12.90;74.30
42095;DHT22;27753;55.724;37.612;2023-04-03T16:06:46;12.90;74.00
42095;DHT22;27753;55.724;37.612;2023-04-03T16:09:12;12.80;74.10
42095;DHT22;27753;55.724;37.612;2023-04-03T16:11:38;12.80;74.20
42095;DHT22;27753;55.724;37.612;2023-04-03T16:14:07;12.80;74.40
42095;DHT22;27753;55.724;37.612;2023-04-03T16:16:34;12.80;74.50
42095;DHT22;27753;55.724;37.612;2023-04-03T16:19:00;12.80;74.50
42095;DHT22;27753;55.724;37.612;2023-04-03T16:21:27;12.90;74.70
42095;DHT22;27753;55.724;37.612;2023-04-03T16:23:53;12.90;75.40
42095;DHT22;27753;55.724;37.612;2023-04-03T16:26:19;12.80;75.90
42095;DHT22;27753;55.724;37.612;2023-04-03T16:28:45;12.80;76.50
42095;DHT22;27753;55.724;37.612;2023-04-03T16:31:11;12.80;77.10
42095;DHT22;27753;55.724;37.612;2023-04-03T16:33:37;12.80;77.40
42095;DHT22;27753;55.724;37.612;2023-04-03T16:36:04;12.70;77.00
42095;DHT22;27753;55.724;37.612;2023-04-03T16:38:30;12.80;77.40
42095;DHT22;27753;55.724;37.612;2023-04-03T16:40:56;12.80;77.40
42095;DHT22;27753;55.724;37.612;2023-04-03T16:43:25;12.70;77.50
42095;DHT22;27753;55.724;37.612;2023-04-03T16:45:54;12.80;77.20
42095;DHT22;27753;55.724;37.612;2023-04-03T16:48:20;12.80;75.50
42095;DHT22;27753;55.724;37.612;2023-04-03T16:50:47;12.80;76.00
42095;DHT22;27753;55.724;37.612;2023-04-03T16:53:21;12.70;76.30
42095;DHT22;27753;55.724;37.612;2023-04-03T16:55:47;12.70;75.60
42095;DHT22;27753;55.724;37.612;2023-04-03T16:58:13;12.70;75.60
42095;DHT22;27753;55.724;37.612;2023-04-03T17:00:41;12.60;75.00
42095;DHT22;27753;55.724;37.612;2023-04-03T17:03:07;12.60;75.20
42095;DHT22;27753;55.724;37.612;2023-04-03T17:05:36;12.50;75.30
42095;DHT22;27753;55.724;37.612;2023-04-03T17:08:02;12.50;75.10
42095;DHT22;27753;55.724;37.612;2023-04-03T17:10:31;12.50;75.20
42095;DHT22;27753;55.724;37.612;2023-04-03T17:13:00;12.50;75.60
42095;DHT22;27753;55.724;37.612;2023-04-03T17:15:33;12.50;75.50
42095;DHT22;27753;55.724;37.612;2023-04-03T17:18:02;12.50;76.10
42095;DHT22;27753;55.724;37.612;2023-04-03T17:20:29;12.50;76.70